Time;durP1;ratioP1;P1;durP2;ratioP2;P2;SDS_P1;SDS_P2;PMS_P1;PMS_P2;Temp;Humidity;BMP_temperature;BMP_pressure;BME280_temperature;BME280_humidity;BME280_pressure;Samples;Min_cycle;Max_cycle;Signal;HPM_P1;HPM_P2
2021/06/28 00:00:15;;;;;;;3.15;2.80;;;19.00;87.10;;;;;;5003281;28;20039;-81
2021/06/28 00:02:41;;;;;;;4.28;2.70;;;19.00;87.00;;;;;;5018164;28;20060;-80
2021/06/28 00:05:08;;;;;;;4.82;2.60;;;19.00;87.00;;;;;;5017795;28;20477;-80
2021/06/28 00:07:34;;;;;;;3.72;2.88;;;18.90;86.90;;;;;;5034975;28;20021;-80
2021/06/28 00:10:00;;;;;;;4.90;2.85;;;18.80;87.20;;;;;;5017685;28;20037;-80
2021/06/28 00:12:26;;;;;;;4.30;3.10;;;18.80;87.20;;;;;;5017894;28;20080;-80
2021/06/28 00:14:52;;;;;;;3.33;2.90;;;18.70;87.30;;;;;;5017579;28;20473;-80
2021/06/28 00:17:17;;;;;;;5.85;3.00;;;18.60;88.00;;;;;;5017446;28;20037;-80
2021/06/28 00:19:43;;;;;;;5.32;2.53;;;18.50;88.30;;;;;;5017393;28;20021;-79
2021/06/28 00:22:10;;;;;;;3.35;2.85;;;18.40;88.20;;;;;;5017358;28;20543;-80
2021/06/28 00:24:35;;;;;;;3.05;2.72;;;18.40;88.20;;;;;;5033965;28;20117;-80
2021/06/28 00:27:01;;;;;;;4.50;3.25;;;18.40;88.60;;;;;;5017202;28;20072;-80
2021/06/28 00:29:27;;;;;;;5.15;3.15;;;18.40;88.70;;;;;;5017153;28;20028;-80
2021/06/28 00:31:55;;;;;;;7.15;2.80;;;18.40;88.90;;;;;;5017064;28;20482;-78
2021/06/28 00:34:22;;;;;;;3.42;2.83;;;18.40;89.80;;;;;;5017035;28;20405;-79
2021/06/28 00:36:48;;;;;;;6.88;2.90;;;18.40;89.20;;;;;;5016916;28;20555;-80
2021/06/28 00:39:14;;;;;;;3.47;2.58;;;18.40;89.40;;;;;;5017072;28;20025;-80
2021/06/28 00:41:39;;;;;;;4.13;2.95;;;18.30;89.20;;;;;;5017210;28;20474;-81
2021/06/28 00:44:05;;;;;;;3.28;2.45;;;18.30;89.30;;;;;;5000812;28;20025;-80
2021/06/28 00:46:31;;;;;;;3.20;2.45;;;18.30;89.40;;;;;;5033582;28;20021;-80
2021/06/28 00:48:57;;;;;;;2.63;2.22;;;18.40;88.80;;;;;;5016784;28;20433;-80
2021/06/28 00:51:23;;;;;;;3.40;2.70;;;18.40;88.20;;;;;;5016800;28;20416;-80
2021/06/28 00:53:50;;;;;;;2.88;1.95;;;18.40;88.70;;;;;;5016826;28;20556;-79
2021/06/28 00:56:16;;;;;;;2.30;1.95;;;18.40;88.40;;;;;;5016806;28;20124;-79
2021/06/28 00:58:43;;;;;;;2.20;1.65;;;18.30;88.10;;;;;;5016490;28;20053;-79
2021/06/28 01:01:12;;;;;;;2.40;1.63;;;18.20;86.30;;;;;;5034674;28;20041;-81
2021/06/28 01:03:38;;;;;;;3.08;1.88;;;18.20;86.40;;;;;;5016777;28;20021;-80
2021/06/28 01:06:07;;;;;;;5.03;1.98;;;18.00;87.40;;;;;;5016385;28;20030;-82
2021/06/28 01:08:33;;;;;;;3.30;1.95;;;17.90;88.70;;;;;;5034194;28;20096;-79
2021/06/28 01:11:01;;;;;;;2.75;1.77;;;17.90;89.50;;;;;;5016575;28;20112;-79
2021/06/28 01:13:29;;;;;;;2.20;2.00;;;17.80;89.90;;;;;;5016676;28;20025;-79
2021/06/28 01:15:54;;;;;;;3.25;2.28;;;17.80;90.10;;;;;;5016358;28;20025;-80
2021/06/28 01:18:20;;;;;;;2.83;2.00;;;17.90;90.40;;;;;;5034158;28;20052;-80
2021/06/28 01:20:46;;;;;;;3.70;2.00;;;17.90;90.20;;;;;;5015584;28;20359;-79
2021/06/28 01:23:20;;;;;;;3.45;1.92;;;17.90;89.30;;;;;;5016337;28;20056;-79
2021/06/28 01:25:53;;;;;;;2.25;1.83;;;17.80;89.30;;;;;;5016401;28;20040;-79
2021/06/28 01:28:19;;;;;;;2.50;1.70;;;17.80;89.20;;;;;;5015861;28;20109;-80
2021/06/28 01:30:45;;;;;;;2.08;1.50;;;17.70;89.30;;;;;;5015917;28;20444;-79
2021/06/28 01:33:11;;;;;;;2.78;1.63;;;17.60;89.40;;;;;;4999825;28;20034;-78
2021/06/28 01:35:37;;;;;;;6.28;2.03;;;17.60;88.60;;;;;;5015875;28;20493;-80
2021/06/28 01:38:09;;;;;;;2.58;2.20;;;17.60;88.40;;;;;;4999991;28;20037;-80
2021/06/28 01:40:36;;;;;;;3.83;1.73;;;17.50;88.30;;;;;;5016230;28;20022;-79
2021/06/28 01:43:02;;;;;;;2.90;1.70;;;17.50;88.60;;;;;;5016139;28;20033;-79
2021/06/28 01:45:28;;;;;;;2.95;2.28;;;17.40;89.10;;;;;;5015851;28;20048;-79
2021/06/28 01:47:56;;;;;;;2.08;1.75;;;17.40;89.20;;;;;;5015963;28;20477;-79
2021/06/28 01:50:26;;;;;;;6.43;2.10;;;17.40;89.10;;;;;;5033572;28;20021;-79
2021/06/28 01:52:52;;;;;;;2.53;1.77;;;17.50;88.40;;;;;;5015907;28;20033;-79
2021/06/28 01:55:19;;;;;;;2.28;1.48;;;17.60;87.90;;;;;;5015638;28;20028;-80
2021/06/28 01:57:47;;;;;;;2.25;1.70;;;17.60;88.10;;;;;;5015456;28;20037;-79
2021/06/28 02:00:19;;;;;;;2.05;1.55;;;17.70;88.30;;;;;;5033476;28;20021;-79
2021/06/28 02:03:07;;;;;;;1.60;1.50;;;17.70;88.50;;;;;;5012036;28;20049;-80
2021/06/28 02:05:35;;;;;;;2.25;1.65;;;17.60;88.70;;;;;;5012640;28;20033;-79
2021/06/28 02:08:03;;;;;;;2.45;1.88;;;17.60;88.90;;;;;;4995659;28;20072;-80
2021/06/28 02:10:29;;;;;;;2.17;1.67;;;17.70;89.00;;;;;;4979964;28;20037;-79
2021/06/28 02:12:55;;;;;;;6.82;1.55;;;17.60;88.10;;;;;;4995880;28;20505;-81
2021/06/28 02:15:26;;;;;;;1.50;1.40;;;17.50;88.00;;;;;;5011863;28;20080;-81
2021/06/28 02:17:52;;;;;;;2.33;1.80;;;17.40;88.20;;;;;;4979611;28;20126;-81
2021/06/28 02:20:19;;;;;;;2.78;1.67;;;17.40;88.60;;;;;;4995692;28;20050;-80
2021/06/28 02:22:47;;;;;;;3.80;1.67;;;17.30;88.50;;;;;;4995808;28;20100;-79
2021/06/28 02:25:14;;;;;;;4.47;1.70;;;17.30;89.00;;;;;;5013321;28;20072;-80
2021/06/28 02:27:41;;;;;;;2.00;1.80;;;17.20;88.90;;;;;;4995409;28;20030;-80
2021/06/28 02:30:10;;;;;;;4.15;2.03;;;17.10;89.40;;;;;;4995756;28;20030;-79
2021/06/28 02:32:36;;;;;;;5.15;1.98;;;17.00;89.60;;;;;;4995440;28;20138;-81
2021/06/28 02:35:05;;;;;;;1.85;1.60;;;17.00;89.30;;;;;;5013098;28;20033;-79
2021/06/28 02:37:31;;;;;;;4.13;1.90;;;16.90;89.10;;;;;;4995244;28;20065;-80
2021/06/28 02:39:57;;;;;;;2.05;1.60;;;16.90;89.00;;;;;;4995756;28;20026;-80
2021/06/28 02:42:22;;;;;;;2.28;2.00;;;16.90;89.30;;;;;;4995510;28;20022;-80
2021/06/28 02:44:48;;;;;;;3.95;2.00;;;17.00;89.70;;;;;;4995675;28;20533;-79
2021/06/28 02:47:13;;;;;;;3.97;2.10;;;17.00;90.30;;;;;;4995639;28;20029;-79
2021/06/28 02:49:39;;;;;;;2.90;1.80;;;17.00;90.50;;;;;;4996080;28;20479;-80
2021/06/28 02:52:05;;;;;;;3.97;1.70;;;17.00;90.30;;;;;;4995798;28;20088;-80
2021/06/28 02:54:30;;;;;;;2.08;1.88;;;16.90;90.30;;;;;;4996045;28;20152;-80
2021/06/28 02:56:56;;;;;;;4.22;1.73;;;16.90;90.20;;;;;;4995254;28;20088;-79
2021/06/28 02:59:22;;;;;;;3.05;2.03;;;16.90;89.80;;;;;;5013059;28;20478;-78
2021/06/28 03:01:48;;;;;;;2.08;1.90;;;16.90;89.90;;;;;;5022989;28;20061;-79
2021/06/28 03:04:14;;;;;;;2.00;1.80;;;16.90;90.00;;;;;;5015473;28;20034;-79
2021/06/28 03:06:39;;;;;;;3.70;1.90;;;16.90;90.00;;;;;;5018560;28;20037;-80
2021/06/28 03:09:05;;;;;;;1.73;1.63;;;16.90;90.10;;;;;;5014894;28;20438;-79
2021/06/28 03:11:30;;;;;;;5.13;2.17;;;16.90;89.60;;;;;;5014745;28;20114;-79
2021/06/28 03:13:56;;;;;;;2.75;2.10;;;16.90;89.30;;;;;;5015084;28;20036;-79
2021/06/28 03:16:22;;;;;;;3.42;1.80;;;16.90;89.30;;;;;;5032599;28;20045;-79
2021/06/28 03:18:48;;;;;;;9.43;2.25;;;16.90;89.70;;;;;;5014498;28;20399;-79
2021/06/28 03:21:14;;;;;;;2.85;2.20;;;16.90;89.60;;;;;;5014680;28;20029;-79
2021/06/28 03:23:42;;;;;;;3.80;2.17;;;16.80;89.90;;;;;;4998266;28;20482;-79
2021/06/28 03:26:08;;;;;;;4.03;1.90;;;16.80;90.10;;;;;;5032408;28;20025;-78
2021/06/28 03:28:34;;;;;;;2.92;2.00;;;16.80;90.20;;;;;;5014699;28;20029;-78
2021/06/28 03:31:03;;;;;;;5.30;2.35;;;16.80;90.00;;;;;;5014545;28;20468;-78
2021/06/28 03:33:30;;;;;;;3.55;2.40;;;16.70;90.20;;;;;;5014789;28;20026;-78
2021/06/28 03:35:55;;;;;;;2.95;2.00;;;16.70;90.40;;;;;;4998054;28;20034;-79
2021/06/28 03:38:23;;;;;;;3.45;2.38;;;16.60;90.50;;;;;;5014548;28;20041;-77
2021/06/28 03:40:49;;;;;;;2.38;1.98;;;16.60;90.50;;;;;;4998399;28;20025;-78
2021/06/28 03:43:16;;;;;;;4.68;2.17;;;16.60;91.00;;;;;;5015646;28;20029;-81
2021/06/28 03:45:42;;;;;;;2.40;2.10;;;16.50;90.30;;;;;;5018275;28;20026;-79
2021/06/28 03:48:09;;;;;;;2.95;2.42;;;16.40;90.40;;;;;;5018081;28;20120;-79
2021/06/28 03:50:37;;;;;;;3.25;2.22;;;16.50;90.60;;;;;;5017815;28;20060;-79
2021/06/28 03:53:04;;;;;;;5.53;2.58;;;16.50;90.60;;;;;;5018175;28;20597;-79
2021/06/28 03:55:30;;;;;;;5.57;2.17;;;16.40;90.80;;;;;;5023009;28;20026;-80
2021/06/28 03:57:55;;;;;;;3.65;2.10;;;16.50;90.80;;;;;;5017941;28;20359;-80
2021/06/28 04:00:23;;;;;;;2.15;2.05;;;16.50;90.80;;;;;;5002230;28;20129;-80
2021/06/28 04:02:49;;;;;;;5.30;2.42;;;16.50;90.60;;;;;;5024411;28;20060;-80
2021/06/28 04:05:21;;;;;;;9.10;2.10;;;16.60;90.20;;;;;;5020822;28;20030;-80
2021/06/28 04:07:48;;;;;;;2.33;2.13;;;16.60;90.00;;;;;;5017755;28;20074;-79
2021/06/28 04:10:15;;;;;;;5.53;2.00;;;16.60;89.90;;;;;;5018608;28;20021;-79
2021/06/28 04:12:41;;;;;;;2.63;2.17;;;16.60;89.70;;;;;;5021096;28;20032;-79
2021/06/28 04:15:10;;;;;;;2.53;2.20;;;16.60;89.50;;;;;;5018350;28;20026;-79
2021/06/28 04:17:41;;;;;;;5.43;2.20;;;16.60;89.70;;;;;;5017659;28;20136;-79
2021/06/28 04:20:09;;;;;;;2.05;1.92;;;16.60;89.60;;;;;;5017496;28;20025;-79
2021/06/28 04:22:37;;;;;;;4.13;2.13;;;16.70;89.20;;;;;;5016761;28;20037;-79
2021/06/28 04:25:05;;;;;;;2.17;1.90;;;16.70;89.00;;;;;;5017154;28;20044;-79
2021/06/28 04:27:31;;;;;;;7.05;2.17;;;16.70;88.90;;;;;;5016851;28;20061;-79
2021/06/28 04:29:57;;;;;;;3.50;2.38;;;16.70;88.60;;;;;;5034939;28;20474;-80
2021/06/28 04:32:23;;;;;;;2.22;1.88;;;16.70;88.60;;;;;;5017062;28;20040;-79
2021/06/28 04:34:48;;;;;;;2.63;2.13;;;16.70;88.30;;;;;;5016931;28;20028;-79
2021/06/28 04:37:14;;;;;;;3.42;2.15;;;16.60;88.00;;;;;;5017154;28;20370;-79
2021/06/28 04:39:40;;;;;;;2.55;2.33;;;16.60;88.60;;;;;;5034830;28;20029;-79
2021/06/28 04:42:07;;;;;;;3.97;2.45;;;16.60;88.50;;;;;;5016976;28;20030;-79
2021/06/28 04:44:33;;;;;;;5.03;2.30;;;16.60;88.30;;;;;;5016964;28;20032;-79
2021/06/28 04:46:58;;;;;;;4.00;2.35;;;16.50;88.70;;;;;;5016795;28;20029;-77
2021/06/28 04:49:25;;;;;;;3.92;2.10;;;16.50;88.70;;;;;;5016771;28;20041;-79
2021/06/28 04:51:52;;;;;;;3.65;2.30;;;16.50;88.80;;;;;;5034530;28;20088;-78
2021/06/28 04:54:18;;;;;;;2.72;2.20;;;16.60;88.60;;;;;;5015885;28;20103;-78
2021/06/28 04:56:43;;;;;;;4.35;2.65;;;16.60;88.60;;;;;;5034329;28;20509;-79
2021/06/28 04:59:09;;;;;;;2.70;2.17;;;16.70;88.40;;;;;;5016461;28;20548;-77
2021/06/28 05:01:34;;;;;;;2.28;2.03;;;17.00;87.50;;;;;;5000310;28;20045;-81
2021/06/28 05:04:00;;;;;;;2.88;2.22;;;17.10;87.10;;;;;;5034165;28;20071;-79
2021/06/28 05:06:26;;;;;;;2.33;2.03;;;17.30;84.90;;;;;;5034136;28;20482;-76
2021/06/28 05:08:51;;;;;;;4.25;2.33;;;17.60;84.40;;;;;;5016743;28;20022;-78
2021/06/28 05:11:17;;;;;;;2.45;1.98;;;17.70;84.20;;;;;;5016307;28;20035;-79
2021/06/28 05:13:43;;;;;;;3.85;2.17;;;17.70;84.40;;;;;;5016087;28;20026;-79
2021/06/28 05:16:08;;;;;;;6.18;2.00;;;17.60;84.60;;;;;;5033463;28;20069;-79
2021/06/28 05:18:34;;;;;;;2.83;2.13;;;17.60;84.30;;;;;;5010562;28;20025;-78
2021/06/28 05:21:00;;;;;;;4.82;2.13;;;17.60;84.60;;;;;;5031075;28;20033;-79
2021/06/28 05:23:27;;;;;;;3.83;2.10;;;17.70;84.20;;;;;;5015947;28;20028;-80
2021/06/28 05:25:53;;;;;;;3.60;2.28;;;17.80;83.80;;;;;;5015765;28;20449;-80
2021/06/28 05:28:18;;;;;;;3.58;2.63;;;17.90;83.60;;;;;;5016049;28;20152;-79
2021/06/28 05:30:44;;;;;;;3.55;2.20;;;18.00;83.60;;;;;;5014743;28;20029;-79
2021/06/28 05:33:10;;;;;;;8.43;2.28;;;18.10;83.90;;;;;;5015448;28;20037;-79
2021/06/28 05:35:37;;;;;;;3.05;1.60;;;18.20;83.40;;;;;;5015800;28;20028;-79
2021/06/28 05:38:03;;;;;;;5.28;2.28;;;18.30;82.50;;;;;;5015351;28;20064;-77
2021/06/28 05:40:28;;;;;;;3.38;2.03;;;18.30;82.20;;;;;;5015573;28;20025;-80
2021/06/28 05:42:55;;;;;;;2.85;2.20;;;18.40;81.70;;;;;;4999432;28;20068;-80
2021/06/28 05:45:21;;;;;;;4.60;2.20;;;18.50;81.70;;;;;;5015268;28;20017;-80
2021/06/28 05:47:47;;;;;;;4.90;2.30;;;18.40;82.20;;;;;;5033155;28;20026;-79
2021/06/28 05:50:17;;;;;;;5.05;2.63;;;18.50;82.80;;;;;;5015325;28;20078;-80
2021/06/28 05:52:43;;;;;;;4.32;2.47;;;18.60;81.70;;;;;;5015598;28;20025;-79
2021/06/28 05:55:10;;;;;;;3.80;2.22;;;18.90;81.40;;;;;;4999412;28;20061;-80
2021/06/28 05:57:37;;;;;;;4.90;2.10;;;19.00;80.40;;;;;;5014496;28;20037;-78
2021/06/28 06:00:09;;;;;;;2.42;1.88;;;19.20;79.70;;;;;;5015577;28;20056;-79
2021/06/28 06:02:36;;;;;;;2.00;1.65;;;19.30;79.20;;;;;;5015064;28;20136;-80
2021/06/28 06:05:02;;;;;;;4.65;2.17;;;19.40;78.20;;;;;;5015257;28;20083;-80
2021/06/28 06:07:28;;;;;;;3.30;1.77;;;19.70;77.40;;;;;;5015364;28;20059;-81
2021/06/28 06:09:54;;;;;;;5.25;1.83;;;19.90;76.80;;;;;;5015634;28;20057;-78
2021/06/28 06:12:19;;;;;;;3.90;1.98;;;20.10;77.00;;;;;;5015380;28;20025;-78
2021/06/28 06:14:45;;;;;;;4.00;1.42;;;20.20;76.00;;;;;;5014999;28;20080;-78
2021/06/28 06:17:12;;;;;;;2.55;1.48;;;20.40;75.70;;;;;;4982489;28;20041;-79
2021/06/28 06:19:37;;;;;;;2.05;1.60;;;20.50;75.00;;;;;;5015223;28;20024;-80
2021/06/28 06:22:03;;;;;;;1.60;1.35;;;20.70;74.80;;;;;;5015093;28;20026;-81
2021/06/28 06:24:29;;;;;;;7.05;1.38;;;20.90;74.60;;;;;;5014870;28;20017;-81
2021/06/28 06:26:57;;;;;;;2.25;1.55;;;21.20;74.00;;;;;;5032771;28;20067;-78
2021/06/28 06:29:28;;;;;;;2.45;1.58;;;21.40;73.70;;;;;;5015247;28;20496;-79
2021/06/28 06:31:58;;;;;;;3.42;1.50;;;21.60;72.50;;;;;;5029677;28;20060;-79
2021/06/28 06:34:24;;;;;;;1.92;1.27;;;21.80;71.20;;;;;;5015072;28;20469;-80
2021/06/28 06:36:51;;;;;;;2.50;1.60;;;21.90;71.30;;;;;;5014859;28;20044;-80
2021/06/28 06:39:19;;;;;;;1.65;1.50;;;22.20;70.70;;;;;;5015062;28;20466;-80
2021/06/28 06:41:46;;;;;;;2.25;1.63;;;22.40;70.50;;;;;;4998527;28;20188;-79
2021/06/28 06:44:27;;;;;;;1.95;1.42;;;22.50;70.40;;;;;;5017074;28;20100;-79
2021/06/28 06:46:54;;;;;;;3.55;1.77;;;22.50;70.90;;;;;;5032105;28;20478;-79
2021/06/28 06:49:19;;;;;;;5.00;1.65;;;22.50;70.20;;;;;;5014888;28;20079;-76
2021/06/28 06:51:46;;;;;;;5.40;1.60;;;22.60;69.50;;;;;;5015093;28;20112;-77
2021/06/28 06:54:13;;;;;;;1.85;1.17;;;22.50;70.30;;;;;;5014960;28;20041;-78
2021/06/28 06:56:39;;;;;;;2.60;1.60;;;22.40;70.90;;;;;;5014821;28;20037;-78
2021/06/28 06:59:04;;;;;;;5.38;1.80;;;22.50;69.70;;;;;;5014672;28;20103;-79
2021/06/28 07:01:36;;;;;;;2.47;1.70;;;22.60;68.90;;;;;;5014523;28;20061;-84
2021/06/28 07:04:03;;;;;;;3.15;1.40;;;22.70;68.00;;;;;;5014819;28;20363;-83
2021/06/28 07:06:31;;;;;;;5.07;1.60;;;22.80;67.20;;;;;;5014928;28;20498;-83
2021/06/28 07:09:01;;;;;;;2.25;1.50;;;23.00;67.20;;;;;;4998301;28;20041;-84
2021/06/28 07:11:27;;;;;;;3.75;1.60;;;23.10;68.40;;;;;;4998896;28;20026;-83
2021/06/28 07:13:55;;;;;;;1.35;1.25;;;23.00;68.50;;;;;;5014655;28;20561;-83
2021/06/28 07:16:29;;;;;;;9.27;2.00;;;23.00;68.60;;;;;;4987912;28;20088;-83
2021/06/28 07:19:05;;;;;;;2.85;1.50;;;23.20;68.10;;;;;;5035084;28;20029;-83
2021/06/28 07:21:43;;;;;;;4.68;1.60;;;23.30;68.10;;;;;;5020601;28;20033;-84
2021/06/28 07:24:10;;;;;;;2.30;1.27;;;23.20;68.00;;;;;;5017830;28;20041;-84
2021/06/28 07:26:36;;;;;;;4.75;1.60;;;23.30;67.30;;;;;;4985827;28;20029;-85
2021/06/28 07:29:05;;;;;;;2.83;1.23;;;23.40;66.70;;;;;;5018356;28;20034;-84
2021/06/28 07:31:41;;;;;;;2.80;1.42;;;23.50;66.10;;;;;;5017770;28;20034;-84
2021/06/28 07:34:08;;;;;;;2.58;1.50;;;23.60;65.90;;;;;;5036273;28;20111;-84
2021/06/28 07:36:37;;;;;;;1.38;1.15;;;23.90;65.50;;;;;;5018004;28;20025;-84
2021/06/28 07:39:06;;;;;;;1.55;1.45;;;24.00;64.80;;;;;;5002046;28;20056;-84
2021/06/28 07:41:33;;;;;;;1.63;1.52;;;24.20;63.90;;;;;;5018338;28;20064;-82
2021/06/28 07:44:07;;;;;;;2.55;1.45;;;24.30;64.70;;;;;;5017866;28;20083;-83
2021/06/28 07:46:38;;;;;;;5.70;1.45;;;24.50;64.00;;;;;;5018099;28;20043;-83
2021/06/28 07:49:05;;;;;;;2.00;1.40;;;24.40;65.20;;;;;;4985697;28;20033;-83
2021/06/28 07:51:36;;;;;;;1.25;1.13;;;24.40;64.90;;;;;;5018262;28;20096;-83
2021/06/28 07:54:09;;;;;;;4.30;1.52;;;24.60;64.80;;;;;;5016063;28;20040;-82
2021/06/28 07:56:37;;;;;;;3.03;1.60;;;24.80;65.80;;;;;;5017651;28;20033;-81
2021/06/28 07:59:05;;;;;;;1.75;1.45;;;24.80;65.70;;;;;;5035260;28;20026;-81
2021/06/28 08:01:40;;;;;;;2.08;1.70;;;24.80;65.80;;;;;;5019165;28;20057;-81
2021/06/28 08:04:05;;;;;;;4.72;1.90;;;24.80;67.10;;;;;;5016408;28;20090;-83
2021/06/28 08:06:32;;;;;;;4.38;1.80;;;24.60;69.50;;;;;;5015677;28;20451;-81
2021/06/28 08:08:59;;;;;;;6.65;2.33;;;24.40;69.90;;;;;;5001389;28;20044;-81
2021/06/28 08:11:25;;;;;;;6.22;2.35;;;24.30;70.70;;;;;;4985456;28;20115;-81
2021/06/28 08:13:53;;;;;;;6.13;1.90;;;24.20;69.40;;;;;;5017397;28;20140;-82
2021/06/28 08:16:20;;;;;;;3.72;2.10;;;24.10;70.50;;;;;;5017550;28;20465;-81
2021/06/28 08:18:48;;;;;;;4.07;2.00;;;24.10;71.50;;;;;;5017033;28;20031;-81
2021/06/28 08:21:15;;;;;;;5.13;2.03;;;24.10;70.40;;;;;;5001428;28;20080;-80
2021/06/28 08:23:42;;;;;;;4.25;1.70;;;24.20;70.40;;;;;;5016309;28;20045;-80
2021/06/28 08:26:08;;;;;;;2.83;1.98;;;24.10;71.00;;;;;;5016987;28;20485;-80
2021/06/28 08:28:33;;;;;;;6.50;2.25;;;24.00;71.10;;;;;;5016458;28;20477;-80
2021/06/28 08:30:59;;;;;;;5.63;2.00;;;23.90;71.20;;;;;;5016909;28;20068;-80
2021/06/28 08:33:25;;;;;;;3.30;1.90;;;23.90;70.80;;;;;;5017704;28;20026;-80
2021/06/28 08:35:51;;;;;;;3.88;2.00;;;23.90;70.70;;;;;;5000520;28;20485;-81
2021/06/28 08:38:18;;;;;;;4.78;2.10;;;24.00;70.40;;;;;;5000619;28;20041;-83
2021/06/28 08:40:45;;;;;;;4.05;2.00;;;24.10;70.80;;;;;;5016962;28;20018;-80
2021/06/28 08:43:11;;;;;;;4.22;1.83;;;24.30;69.40;;;;;;5016962;28;20456;-81
2021/06/28 08:45:40;;;;;;;2.83;1.77;;;24.30;68.90;;;;;;5000711;28;20129;-80
2021/06/28 08:48:08;;;;;;;3.55;2.03;;;24.50;69.10;;;;;;5017012;28;20030;-81
2021/06/28 08:50:36;;;;;;;4.65;2.10;;;24.70;68.60;;;;;;5000679;28;20025;-80
2021/06/28 08:53:05;;;;;;;3.17;1.83;;;24.80;69.40;;;;;;5016592;28;20045;-80
2021/06/28 08:55:32;;;;;;;5.50;1.95;;;24.60;68.80;;;;;;5000496;28;20037;-80
2021/06/28 08:58:01;;;;;;;3.42;2.25;;;24.60;69.50;;;;;;5016514;28;20033;-81
2021/06/28 09:00:26;;;;;;;3.55;1.90;;;24.60;69.20;;;;;;5001914;28;20113;-80
2021/06/28 09:02:58;;;;;;;2.50;1.85;;;24.70;67.80;;;;;;5016325;28;20566;-82
2021/06/28 09:05:27;;;;;;;4.82;2.05;;;24.70;68.00;;;;;;5016854;28;20091;-82
2021/06/28 09:08:12;;;;;;;4.57;2.10;;;24.70;68.20;;;;;;5016698;28;20026;-82
2021/06/28 09:10:41;;;;;;;3.95;2.10;;;24.90;69.20;;;;;;5000425;28;20025;-80
2021/06/28 09:13:09;;;;;;;4.47;2.38;;;24.80;68.90;;;;;;5016668;28;20029;-82
2021/06/28 09:15:49;;;;;;;2.45;1.65;;;24.80;69.10;;;;;;5016570;28;20025;-81
2021/06/28 09:18:23;;;;;;;4.00;2.20;;;25.10;68.60;;;;;;5034308;28;20092;-82
2021/06/28 09:20:52;;;;;;;4.85;2.40;;;25.20;68.20;;;;;;5016139;28;20026;-80
2021/06/28 09:23:25;;;;;;;4.25;2.22;;;25.30;68.40;;;;;;5016327;28;20030;-82
2021/06/28 09:25:56;;;;;;;3.22;2.50;;;25.20;67.80;;;;;;5016478;28;20021;-80
2021/06/28 09:28:42;;;;;;;6.75;2.58;;;25.30;67.60;;;;;;5016550;28;20053;-81
2021/06/28 09:31:14;;;;;;;3.20;2.30;;;25.20;68.50;;;;;;5016269;28;20116;-82
2021/06/28 09:33:40;;;;;;;4.13;2.10;;;25.30;69.50;;;;;;5016450;28;20044;-81
2021/06/28 09:36:21;;;;;;;2.60;2.15;;;25.40;68.40;;;;;;5016187;28;20095;-82
2021/06/28 09:38:46;;;;;;;3.40;1.90;;;25.40;68.70;;;;;;5016136;28;20022;-80
2021/06/28 09:41:34;;;;;;;2.95;2.08;;;25.60;67.40;;;;;;5015133;28;20033;-82
2021/06/28 09:44:09;;;;;;;4.57;2.42;;;25.60;66.10;;;;;;5015149;28;20028;-81
2021/06/28 09:46:39;;;;;;;3.70;2.22;;;25.60;65.70;;;;;;4999735;28;20053;-81
2021/06/28 09:49:08;;;;;;;3.55;2.20;;;25.60;65.90;;;;;;5018313;28;20374;-81
2021/06/28 09:51:51;;;;;;;5.03;2.13;;;25.80;65.80;;;;;;5033989;28;20052;-82
2021/06/28 09:54:22;;;;;;;2.28;1.63;;;26.10;65.00;;;;;;4996934;28;20053;-81
2021/06/28 09:57:02;;;;;;;3.65;1.88;;;26.30;63.70;;;;;;5011963;28;20073;-81
2021/06/28 09:59:39;;;;;;;2.92;1.92;;;26.40;62.40;;;;;;5014056;28;20080;-83
2021/06/28 10:02:40;;;;;;;3.25;2.17;;;26.70;61.20;;;;;;5027294;28;20096;-83
2021/06/28 10:05:15;;;;;;;3.33;2.13;;;26.70;61.50;;;;;;5033689;28;20028;-83
2021/06/28 10:07:41;;;;;;;5.90;2.00;;;26.90;61.70;;;;;;5033459;28;20034;-82
2021/06/28 10:10:45;;;;;;;2.55;2.30;;;26.90;61.40;;;;;;5033066;28;20031;-84
2021/06/28 10:13:17;;;;;;;5.32;2.08;;;26.90;61.80;;;;;;5032799;28;20065;-84
2021/06/28 10:16:13;;;;;;;4.68;2.35;;;26.80;62.10;;;;;;5034672;28;20056;-83
2021/06/28 10:18:45;;;;;;;3.13;2.17;;;26.60;61.90;;;;;;5028035;28;20124;-83
2021/06/28 10:21:57;;;;;;;4.05;1.95;;;26.50;62.90;;;;;;5032670;28;20034;-83
2021/06/28 10:24:26;;;;;;;2.70;2.30;;;26.60;62.80;;;;;;5031164;28;20025;-83
2021/06/28 10:26:54;;;;;;;3.22;2.42;;;26.70;62.20;;;;;;5009345;28;20026;-83
2021/06/28 10:29:24;;;;;;;3.67;2.00;;;26.80;61.60;;;;;;5032933;28;20556;-83
2021/06/28 10:32:06;;;;;;;2.95;1.95;;;26.80;61.50;;;;;;4994429;28;20030;-82
2021/06/28 10:34:35;;;;;;;2.65;2.05;;;26.80;62.30;;;;;;5033665;28;20136;-82
2021/06/28 10:37:04;;;;;;;5.45;2.22;;;26.80;61.10;;;;;;5026734;28;20048;-81
2021/06/28 10:39:31;;;;;;;3.22;2.50;;;26.80;60.80;;;;;;5016587;28;20040;-81
2021/06/28 10:42:00;;;;;;;4.50;2.33;;;26.80;61.20;;;;;;5009222;28;20505;-82
2021/06/28 10:44:50;;;;;;;2.35;2.10;;;27.00;62.90;;;;;;5016102;28;20209;-82
2021/06/28 10:47:17;;;;;;;2.13;1.92;;;27.30;61.10;;;;;;5026724;28;20021;-82
2021/06/28 10:49:52;;;;;;;3.55;2.63;;;27.40;60.10;;;;;;5014364;28;20064;-82
2021/06/28 10:52:42;;;;;;;2.63;2.22;;;27.50;58.30;;;;;;5034217;28;20030;-82
2021/06/28 10:55:31;;;;;;;3.97;2.42;;;27.90;56.40;;;;;;5037439;28;20091;-82
2021/06/28 10:57:58;;;;;;;2.30;2.05;;;27.80;56.40;;;;;;5036395;28;20132;-82
2021/06/28 11:01:01;;;;;;;5.13;2.10;;;28.00;56.50;;;;;;5017408;28;20121;-82
2021/06/28 11:03:34;;;;;;;3.67;2.38;;;27.90;56.10;;;;;;4968374;28;20054;-82
2021/06/28 11:06:25;;;;;;;3.33;2.20;;;28.30;55.60;;;;;;4983154;28;20026;-82
2021/06/28 11:09:14;;;;;;;6.05;2.47;;;28.40;53.70;;;;;;5017622;28;20105;-81
2021/06/28 11:11:47;;;;;;;3.33;2.05;;;28.40;54.40;;;;;;4983766;28;20061;-82
2021/06/28 11:14:19;;;;;;;4.05;2.53;;;28.60;53.40;;;;;;4999785;28;20029;-82
2021/06/28 11:17:11;;;;;;;7.18;2.47;;;28.60;53.00;;;;;;4999187;28;20030;-82
2021/06/28 11:19:48;;;;;;;3.15;2.40;;;28.50;52.30;;;;;;5016035;28;20113;-82
2021/06/28 11:22:35;;;;;;;4.15;2.33;;;28.40;53.00;;;;;;4999251;28;20026;-82
2021/06/28 11:25:10;;;;;;;3.80;2.45;;;28.40;53.90;;;;;;4998703;28;20505;-82
2021/06/28 11:27:36;;;;;;;2.60;2.23;;;28.50;53.40;;;;;;4999186;28;20433;-77
2021/06/28 11:30:10;;;;;;;3.35;2.20;;;28.80;52.60;;;;;;4998617;28;20097;-76
2021/06/28 11:32:39;;;;;;;1.87;1.53;;;29.10;53.60;;;;;;4999014;28;20030;-77
2021/06/28 11:35:06;;;;;;;3.47;2.30;;;29.60;51.90;;;;;;4998282;28;20084;-77
2021/06/28 11:37:34;;;;;;;4.13;2.35;;;29.70;50.10;;;;;;4981966;28;20092;-77
2021/06/28 11:40:04;;;;;;;5.55;2.78;;;29.20;51.50;;;;;;5015929;28;20052;-77
2021/06/28 11:42:34;;;;;;;4.47;2.40;;;29.10;52.60;;;;;;4998612;28;20030;-78
2021/06/28 11:45:11;;;;;;;3.00;2.45;;;28.90;53.00;;;;;;4997960;28;20462;-79
2021/06/28 11:48:00;;;;;;;6.35;2.90;;;28.80;52.90;;;;;;4997784;28;20494;-77
2021/06/28 11:50:37;;;;;;;3.33;2.22;;;28.70;53.30;;;;;;4998572;28;20129;-78
2021/06/28 11:53:12;;;;;;;3.28;2.40;;;28.80;53.60;;;;;;5015562;28;20044;-78
2021/06/28 11:55:48;;;;;;;4.45;2.40;;;29.30;54.60;;;;;;5015933;28;20160;-78
2021/06/28 11:58:15;;;;;;;3.40;2.00;;;29.70;53.20;;;;;;4998214;28;20513;-78
2021/06/28 12:00:44;;;;;;;5.25;1.98;;;29.70;51.20;;;;;;4997956;28;20029;-79
2021/06/28 12:03:24;;;;;;;4.00;2.10;;;29.30;51.80;;;;;;5028841;28;20041;-78
2021/06/28 12:06:06;;;;;;;2.22;1.80;;;29.50;52.30;;;;;;5033287;28;20068;-77
2021/06/28 12:08:32;;;;;;;2.95;2.03;;;29.50;51.50;;;;;;5035283;28;20026;-79
2021/06/28 12:11:01;;;;;;;2.85;2.15;;;29.40;51.10;;;;;;5012332;28;20021;-78
2021/06/28 12:13:41;;;;;;;3.38;2.35;;;29.50;51.00;;;;;;5034407;28;20025;-78
2021/06/28 12:16:13;;;;;;;3.45;1.83;;;30.00;50.00;;;;;;5029187;28;20021;-78
2021/06/28 12:18:39;;;;;;;4.80;2.08;;;30.30;49.90;;;;;;5031393;28;20124;-79
2021/06/28 12:21:04;;;;;;;2.85;2.35;;;30.20;48.10;;;;;;5011906;28;20067;-77
2021/06/28 12:23:30;;;;;;;2.75;1.98;;;29.90;48.00;;;;;;5017436;28;20097;-78
2021/06/28 12:25:56;;;;;;;2.10;1.90;;;30.10;48.10;;;;;;5026865;28;20072;-78
2021/06/28 12:28:28;;;;;;;2.83;2.05;;;30.30;47.50;;;;;;5033308;28;20091;-77
2021/06/28 12:30:55;;;;;;;3.92;2.00;;;30.00;47.70;;;;;;5027024;28;20207;-78
2021/06/28 12:33:21;;;;;;;2.38;2.17;;;30.00;47.90;;;;;;5033773;28;20029;-78
2021/06/28 12:35:57;;;;;;;3.35;1.75;;;29.80;47.80;;;;;;5025556;28;20026;-78
2021/06/28 12:38:23;;;;;;;2.00;1.85;;;29.60;47.90;;;;;;5033762;28;20565;-78
2021/06/28 12:40:49;;;;;;;6.05;2.05;;;29.70;47.90;;;;;;5025786;28;20116;-78
2021/06/28 12:43:22;;;;;;;3.00;2.08;;;29.70;47.00;;;;;;5034633;28;20040;-78
2021/06/28 12:45:57;;;;;;;3.35;2.03;;;29.30;48.10;;;;;;5034395;28;20057;-76
2021/06/28 12:48:28;;;;;;;3.35;2.25;;;29.10;48.60;;;;;;5030157;28;20037;-77
2021/06/28 12:50:59;;;;;;;2.40;1.85;;;29.20;48.40;;;;;;5026011;28;20032;-77
2021/06/28 12:53:26;;;;;;;2.55;1.80;;;29.30;47.30;;;;;;5032753;28;20493;-77
2021/06/28 12:56:07;;;;;;;4.65;1.70;;;29.20;47.70;;;;;;5026159;28;20061;-77
2021/06/28 12:58:47;;;;;;;1.88;1.67;;;29.20;48.40;;;;;;5032983;28;20512;-77